createdAt,value
2023-02-14T00:01:46.966Z,52.15
2023-02-14T00:04:15.520Z,53.95
2023-02-14T00:06:44.363Z,54.78
2023-02-14T00:09:14.777Z,50.30
2023-02-14T00:11:43.404Z,54.17
2023-02-14T00:14:31.766Z,52.38
2023-02-14T00:17:00.007Z,55.05
2023-02-14T00:19:28.683Z,54.67
2023-02-14T00:21:57.101Z,51.65
2023-02-14T00:24:27.178Z,53.30
2023-02-14T00:26:55.481Z,51.00
2023-02-14T00:29:26.662Z,48.33
2023-02-14T00:31:54.810Z,54.10
2023-02-14T00:34:23.133Z,50.70
2023-02-14T00:36:51.754Z,51.08
2023-02-14T00:39:20.692Z,52.53
2023-02-14T00:41:49.031Z,54.55
2023-02-14T00:44:17.090Z,55.60
2023-02-14T00:46:46.886Z,57.83
2023-02-14T00:49:16.045Z,49.08
2023-02-14T00:51:44.180Z,53.58
2023-02-14T00:54:12.245Z,50.10
2023-02-14T00:56:40.208Z,54.58
2023-02-14T00:59:09.154Z,56.25
2023-02-14T01:01:37.266Z,51.60
2023-02-14T01:04:07.808Z,53.65
2023-02-14T01:06:35.910Z,52.20
2023-02-14T01:09:04.613Z,52.58
2023-02-14T01:11:33.056Z,52.97
2023-02-14T01:14:01.991Z,54.92
2023-02-14T01:16:31.019Z,48.28
2023-02-14T01:19:00.108Z,54.95
2023-02-14T01:21:31.119Z,53.38
2023-02-14T01:24:01.034Z,54.58
2023-02-14T01:26:30.996Z,54.40
2023-02-14T01:28:59.067Z,55.33
2023-02-14T01:31:29.178Z,54.45
2023-02-14T01:34:00.121Z,56.70
2023-02-14T01:36:31.205Z,54.20
2023-02-14T01:39:02.742Z,63.10
2023-02-14T01:41:32.826Z,55.65
2023-02-14T01:44:04.673Z,51.78
2023-02-14T01:46:34.419Z,59.17
2023-02-14T01:49:08.323Z,54.75
2023-02-14T01:51:39.811Z,51.58
2023-02-14T01:54:08.861Z,61.50
2023-02-14T01:56:40.029Z,55.83
2023-02-14T01:59:12.831Z,50.20
2023-02-14T02:01:42.534Z,49.15
2023-02-14T02:04:12.328Z,53.45
2023-02-14T02:06:44.449Z,51.75
2023-02-14T02:09:16.606Z,56.13
2023-02-14T02:11:45.172Z,57.60
2023-02-14T02:14:23.083Z,51.65
2023-02-14T02:17:04.484Z,56.47
2023-02-14T02:20:09.128Z,56.75
2023-02-14T02:22:59.960Z,59.55
2023-02-14T02:25:46.409Z,59.40
2023-02-14T02:28:32.536Z,53.95
2023-02-14T02:31:16.672Z,57.17
2023-02-14T02:34:22.427Z,49.22
2023-02-14T02:37:24.995Z,48.80
2023-02-14T02:40:04.775Z,53.58
2023-02-14T02:42:40.418Z,56.42
2023-02-14T02:45:13.757Z,54.42
2023-02-14T02:47:46.050Z,56.05
2023-02-14T02:53:09.596Z,49.13
2023-02-14T02:56:01.916Z,59.15
2023-02-14T02:58:32.807Z,59.05
2023-02-14T03:01:02.621Z,53.78
2023-02-14T03:03:51.315Z,56.90
2023-02-14T03:06:19.367Z,55.40
2023-02-14T03:08:48.935Z,61.22
2023-02-14T03:11:17.457Z,52.28
2023-02-14T03:14:00.801Z,54.25
2023-02-14T03:16:34.796Z,55.55
2023-02-14T03:19:13.774Z,53.67
2023-02-14T03:21:45.137Z,62.13
2023-02-14T03:24:20.679Z,51.70
2023-02-14T03:26:50.309Z,53.95
2023-02-14T03:29:24.160Z,51.30
2023-02-14T03:31:59.414Z,52.45
2023-02-14T03:34:33.020Z,56.85
2023-02-14T03:37:05.142Z,55.88
2023-02-14T03:39:40.596Z,55.25
2023-02-14T03:42:14.554Z,56.75
2023-02-14T03:44:43.373Z,55.47
2023-02-14T03:47:13.766Z,52.20
2023-02-14T03:49:46.462Z,57.78
2023-02-14T03:52:15.443Z,58.58
2023-02-14T03:54:49.057Z,58.97
2023-02-14T03:57:21.306Z,57.60
2023-02-14T04:02:21.678Z,49.95
2023-02-14T04:04:51.660Z,55.83
2023-02-14T04:07:21.914Z,62.15
2023-02-14T04:09:51.533Z,56.63
2023-02-14T04:12:32.367Z,58.47
2023-02-14T04:15:06.395Z,57.25
2023-02-14T04:17:52.270Z,53.58
2023-02-14T04:20:20.553Z,53.75
2023-02-14T04:22:49.203Z,54.40
2023-02-14T04:25:19.558Z,63.63
2023-02-14T04:27:47.875Z,56.65
2023-02-14T04:30:18.117Z,52.13
2023-02-14T04:32:46.475Z,67.80
2023-02-14T04:35:15.972Z,59.75
2023-02-14T04:37:45.588Z,54.95
2023-02-14T04:40:17.315Z,55.60
2023-02-14T04:42:47.284Z,60.92
2023-02-14T04:45:15.873Z,65.22
2023-02-14T04:47:44.300Z,65.88
2023-02-14T04:50:12.377Z,63.15
2023-02-14T04:52:40.828Z,63.28
2023-02-14T04:55:11.223Z,67.75
2023-02-14T04:57:39.655Z,52.92
2023-02-14T05:00:10.531Z,73.70
2023-02-14T05:02:39.113Z,61.13
2023-02-14T05:05:07.844Z,59.33
2023-02-14T05:07:35.876Z,64.75
2023-02-14T05:10:07.302Z,61.47
2023-02-14T05:12:35.743Z,57.27
2023-02-14T05:15:05.291Z,63.65
2023-02-14T05:17:34.876Z,60.40
2023-02-14T05:20:03.220Z,67.70
2023-02-14T05:22:32.323Z,65.07
2023-02-14T05:25:00.392Z,62.65
2023-02-14T05:27:28.476Z,59.25
2023-02-14T05:29:56.646Z,65.07
2023-02-14T05:32:25.488Z,74.00
2023-02-14T05:34:55.188Z,69.55
2023-02-14T05:37:23.234Z,70.93
2023-02-14T05:39:52.307Z,70.63
2023-02-14T05:42:21.582Z,65.80
2023-02-14T05:44:49.733Z,58.85
2023-02-14T05:47:17.970Z,64.28
2023-02-14T05:49:46.082Z,66.97
2023-02-14T05:52:15.496Z,68.03
2023-02-14T05:54:43.944Z,62.33
2023-02-14T05:57:13.151Z,64.45
2023-02-14T05:59:41.590Z,61.90
2023-02-14T06:02:10.276Z,61.83
2023-02-14T06:04:38.449Z,67.63
2023-02-14T06:07:08.017Z,72.68
2023-02-14T06:09:39.814Z,63.13
2023-02-14T06:12:10.411Z,64.28
2023-02-14T06:14:38.745Z,62.30
2023-02-14T06:17:06.912Z,65.10
2023-02-14T06:19:35.544Z,59.65
2023-02-14T06:22:04.067Z,64.05
2023-02-14T06:24:32.462Z,61.65
2023-02-14T06:27:02.310Z,69.38
2023-02-14T06:29:32.575Z,65.10
2023-02-14T06:32:06.083Z,67.88
2023-02-14T06:34:35.155Z,62.42
2023-02-14T06:37:03.350Z,67.50
2023-02-14T06:39:31.836Z,66.30
2023-02-14T06:41:59.913Z,60.55
2023-02-14T06:44:29.626Z,70.75
2023-02-14T06:46:57.693Z,61.17
2023-02-14T06:49:25.822Z,59.40
2023-02-14T06:51:54.185Z,60.92
2023-02-14T06:54:22.692Z,68.28
2023-02-14T06:56:50.760Z,69.13
2023-02-14T06:59:19.310Z,69.53
2023-02-14T07:01:48.977Z,61.78
2023-02-14T07:04:19.911Z,68.05
2023-02-14T07:06:48.352Z,68.55
2023-02-14T07:09:19.274Z,69.05
2023-02-14T07:11:48.290Z,64.68
2023-02-14T07:14:16.725Z,63.75
2023-02-14T07:16:45.336Z,66.47
2023-02-14T07:19:15.169Z,66.05
2023-02-14T07:21:43.235Z,65.65
2023-02-14T07:24:11.710Z,65.65
2023-02-14T07:26:50.961Z,60.47
2023-02-14T07:29:19.139Z,65.55
2023-02-14T07:31:47.597Z,64.93
2023-02-14T07:34:17.301Z,62.85
2023-02-14T07:36:45.298Z,66.72
2023-02-14T07:39:14.605Z,67.68
2023-02-14T07:41:42.607Z,61.15
2023-02-14T07:44:11.134Z,56.70
2023-02-14T07:46:39.352Z,57.20
2023-02-14T07:49:08.004Z,62.85
2023-02-14T07:51:37.563Z,72.95
2023-02-14T07:54:05.840Z,63.20
2023-02-14T07:56:34.366Z,61.53
2023-02-14T07:59:02.491Z,63.63
2023-02-14T08:01:30.641Z,64.70
2023-02-14T08:03:58.748Z,65.55
2023-02-14T08:06:28.021Z,61.78
2023-02-14T08:08:57.595Z,60.92
2023-02-14T08:11:43.025Z,56.33
2023-02-14T08:14:11.193Z,56.40
2023-02-14T08:16:43.088Z,59.78
2023-02-14T08:19:11.101Z,53.05
2023-02-14T08:21:39.409Z,57.53
2023-02-14T08:24:09.004Z,55.80
2023-02-14T08:26:37.668Z,56.85
2023-02-14T08:29:07.078Z,61.78
2023-02-14T08:31:36.658Z,60.40
2023-02-14T08:34:05.254Z,52.40
2023-02-14T08:36:34.901Z,52.65
2023-02-14T08:39:04.445Z,50.92
2023-02-14T08:41:34.265Z,50.15
2023-02-14T08:44:02.781Z,55.53
2023-02-14T08:46:31.245Z,54.97
2023-02-14T08:48:59.466Z,53.15
2023-02-14T08:51:27.627Z,58.53
2023-02-14T08:53:56.269Z,45.10
2023-02-14T08:56:24.994Z,45.67
2023-02-14T08:58:55.496Z,50.00
2023-02-14T09:01:24.098Z,42.35
2023-02-14T09:03:52.343Z,53.15
2023-02-14T09:06:20.804Z,51.65
2023-02-14T09:08:48.838Z,56.38
2023-02-14T09:11:19.380Z,48.97
2023-02-14T09:13:48.297Z,44.42
2023-02-14T09:16:21.808Z,47.17
2023-02-14T09:18:51.605Z,53.85
2023-02-14T09:21:23.639Z,51.97
2023-02-14T09:23:52.704Z,53.78
2023-02-14T09:26:21.046Z,47.25
2023-02-14T09:28:49.654Z,40.17
2023-02-14T09:31:20.793Z,46.50
2023-02-14T09:34:07.959Z,43.13
2023-02-14T09:36:53.931Z,45.28
2023-02-14T09:39:22.365Z,43.78
2023-02-14T09:42:00.712Z,40.17
2023-02-14T09:44:32.782Z,44.83
2023-02-14T09:47:07.818Z,44.17
2023-02-14T09:49:40.007Z,46.47
2023-02-14T09:54:37.320Z,39.75
2023-02-14T09:57:12.117Z,33.25
2023-02-14T09:59:44.975Z,39.67
2023-02-14T10:02:35.273Z,40.63
2023-02-14T10:05:10.128Z,42.80
2023-02-14T10:07:46.269Z,35.25
2023-02-14T10:10:17.058Z,43.53
2023-02-14T10:12:48.900Z,38.40
2023-02-14T10:15:19.262Z,39.13
2023-02-14T10:17:52.832Z,37.60
2023-02-14T10:20:25.876Z,33.90
2023-02-14T10:23:02.507Z,35.58
2023-02-14T10:25:35.606Z,36.30
2023-02-14T10:28:04.060Z,34.28
2023-02-14T10:30:38.901Z,36.42
2023-02-14T10:33:14.981Z,34.08
2023-02-14T10:35:48.293Z,34.65
2023-02-14T10:41:05.518Z,35.08
2023-02-14T10:43:41.058Z,33.13
2023-02-14T10:46:17.075Z,30.13
2023-02-14T10:48:58.338Z,31.45
2023-02-14T10:51:33.973Z,34.17
2023-02-14T10:57:56.246Z,36.25
2023-02-14T11:00:27.377Z,34.47
2023-02-14T11:02:59.145Z,39.67
2023-02-14T11:05:48.949Z,35.80
2023-02-14T11:08:23.234Z,32.83
2023-02-14T11:10:51.630Z,27.25
2023-02-14T11:13:34.617Z,34.45
2023-02-14T11:16:05.448Z,31.63
2023-02-14T11:18:37.469Z,38.67
2023-02-14T11:21:10.131Z,34.17
2023-02-14T11:23:40.951Z,35.20
2023-02-14T11:26:15.286Z,32.92
2023-02-14T11:28:52.034Z,32.17
2023-02-14T11:31:27.581Z,30.27
2023-02-14T11:33:55.957Z,31.58
2023-02-14T11:36:25.790Z,32.25
2023-02-14T11:38:58.272Z,31.17
2023-02-14T11:41:27.681Z,32.00
2023-02-14T11:44:15.293Z,32.22
2023-02-14T11:46:52.775Z,31.88
2023-02-14T11:49:29.297Z,38.13
2023-02-14T11:52:00.148Z,33.40
2023-02-14T11:54:35.747Z,32.42
2023-02-14T11:57:07.809Z,32.05
2023-02-14T11:59:40.610Z,31.27
2023-02-14T12:02:22.917Z,34.92
2023-02-14T12:04:53.414Z,35.78
2023-02-14T12:07:27.645Z,30.00
2023-02-14T12:10:20.396Z,33.45
2023-02-14T12:12:53.425Z,32.22
2023-02-14T12:15:36.755Z,42.33
2023-02-14T12:18:26.353Z,37.97
2023-02-14T12:20:58.248Z,36.53
2023-02-14T12:23:33.781Z,35.92
2023-02-14T12:26:04.683Z,34.15
2023-02-14T12:28:40.472Z,35.80
2023-02-14T12:31:11.949Z,33.03
2023-02-14T12:33:41.637Z,33.28
2023-02-14T12:36:13.845Z,31.13
2023-02-14T12:38:52.669Z,32.55
2023-02-14T12:41:29.196Z,30.88
2023-02-14T12:43:58.938Z,35.13
2023-02-14T12:46:43.016Z,35.15
2023-02-14T12:49:41.053Z,34.72
2023-02-14T12:52:20.849Z,35.90
2023-02-14T12:55:00.267Z,36.92
2023-02-14T12:57:36.518Z,37.47
2023-02-14T13:00:18.527Z,44.17
2023-02-14T13:03:14.456Z,41.63
2023-02-14T13:05:48.283Z,34.80
2023-02-14T13:08:25.401Z,32.65
2023-02-14T13:11:00.143Z,38.25
2023-02-14T13:13:46.652Z,41.65
2023-02-14T13:16:20.556Z,31.55
2023-02-14T13:18:51.291Z,38.00
2023-02-14T13:21:22.929Z,41.83
2023-02-14T13:23:53.780Z,39.25
2023-02-14T13:26:27.275Z,44.97
2023-02-14T13:28:58.094Z,38.35
2023-02-14T13:31:27.440Z,38.25
2023-02-14T13:33:58.934Z,37.25
2023-02-14T13:36:28.783Z,34.27
2023-02-14T13:38:58.537Z,38.95
2023-02-14T13:41:29.611Z,34.85
2023-02-14T13:44:01.635Z,33.92
2023-02-14T13:46:50.845Z,39.78
2023-02-14T13:49:27.666Z,36.03
2023-02-14T13:51:57.830Z,32.95
2023-02-14T13:54:32.883Z,37.95
2023-02-14T13:57:03.439Z,37.90
2023-02-14T13:59:35.766Z,35.33
2023-02-14T14:04:48.414Z,35.85
2023-02-14T14:07:21.049Z,34.53
2023-02-14T14:10:02.332Z,38.20
2023-02-14T14:12:44.905Z,34.28
2023-02-14T14:15:19.377Z,38.40
2023-02-14T14:17:51.069Z,38.60
2023-02-14T14:20:42.555Z,35.15
2023-02-14T14:23:33.319Z,35.75
2023-02-14T14:26:02.968Z,39.42
2023-02-14T14:28:33.983Z,36.33
2023-02-14T14:31:02.092Z,33.13
2023-02-14T14:33:32.391Z,37.42
2023-02-14T14:36:02.812Z,32.83
2023-02-14T14:38:32.726Z,35.03
2023-02-14T14:41:02.050Z,39.05
2023-02-14T14:43:35.099Z,36.60
2023-02-14T14:46:04.348Z,37.72
2023-02-14T14:48:33.880Z,37.35
2023-02-14T14:51:04.499Z,37.72
2023-02-14T14:53:36.434Z,35.25
2023-02-14T14:56:05.099Z,34.95
2023-02-14T14:58:48.397Z,35.78
2023-02-14T15:02:00.349Z,39.08
2023-02-14T15:04:30.624Z,34.50
2023-02-14T15:07:17.795Z,33.17
2023-02-14T15:09:46.094Z,33.63
2023-02-14T15:12:44.664Z,36.70
2023-02-14T15:15:16.820Z,34.28
2023-02-14T15:17:45.635Z,32.53
2023-02-14T15:20:19.991Z,32.45
2023-02-14T15:22:50.892Z,39.13
2023-02-14T15:25:20.824Z,39.60
2023-02-14T15:27:49.710Z,37.65
2023-02-14T15:30:29.769Z,34.53
2023-02-14T15:32:59.182Z,34.25
2023-02-14T15:35:30.334Z,36.72
2023-02-14T15:38:02.009Z,33.65
2023-02-14T15:40:35.212Z,33.03
2023-02-14T15:43:17.510Z,42.90
2023-02-14T15:45:47.464Z,37.80
2023-02-14T15:48:19.448Z,41.70
2023-02-14T15:50:49.240Z,40.78
2023-02-14T15:53:30.832Z,39.03
2023-02-14T15:56:05.751Z,44.80
2023-02-14T15:58:35.574Z,38.67
2023-02-14T16:01:06.856Z,37.28
2023-02-14T16:03:38.409Z,37.20
2023-02-14T16:06:10.724Z,43.83
2023-02-14T16:08:41.684Z,40.38
2023-02-14T16:11:16.926Z,43.17
2023-02-14T16:13:46.694Z,43.00
2023-02-14T16:16:17.088Z,41.03
2023-02-14T16:18:47.699Z,41.88
2023-02-14T16:21:23.043Z,40.45
2023-02-14T16:24:12.251Z,37.08
2023-02-14T16:26:42.409Z,40.60
2023-02-14T16:29:13.106Z,36.65
2023-02-14T16:32:06.266Z,37.33
2023-02-14T16:34:34.352Z,41.05
2023-02-14T16:37:06.970Z,38.03
2023-02-14T16:39:35.552Z,40.50
2023-02-14T16:42:05.903Z,40.25
2023-02-14T16:44:34.309Z,47.03
2023-02-14T16:47:11.125Z,42.13
2023-02-14T16:49:39.185Z,48.65
2023-02-14T16:52:07.501Z,44.47
2023-02-14T16:54:35.875Z,41.88
2023-02-14T16:57:05.251Z,43.78
2023-02-14T16:59:33.435Z,44.00
2023-02-14T17:02:02.294Z,45.92
2023-02-14T17:04:31.958Z,37.53
2023-02-14T17:07:03.771Z,44.83
2023-02-14T17:09:34.028Z,43.83
2023-02-14T17:12:04.929Z,38.90
2023-02-14T17:14:34.949Z,42.47
2023-02-14T17:17:03.174Z,34.92
2023-02-14T17:19:33.220Z,39.40
2023-02-14T17:22:01.976Z,44.67
2023-02-14T17:24:30.129Z,40.70
2023-02-14T17:26:58.153Z,35.15
2023-02-14T17:29:27.502Z,39.67
2023-02-14T17:31:58.707Z,39.88
2023-02-14T17:34:27.221Z,39.17
2023-02-14T17:36:57.735Z,37.20
2023-02-14T17:39:25.829Z,36.65
2023-02-14T17:41:56.677Z,33.65
2023-02-14T17:44:24.936Z,38.50
2023-02-14T17:46:54.628Z,37.67
2023-02-14T17:49:22.996Z,32.53
2023-02-14T17:51:51.797Z,35.40
2023-02-14T17:54:21.433Z,36.45
2023-02-14T17:56:49.476Z,37.72
2023-02-14T17:59:17.759Z,35.72
2023-02-14T18:01:46.482Z,42.42
2023-02-14T18:04:14.818Z,37.40
2023-02-14T18:06:43.748Z,40.72
2023-02-14T18:09:11.833Z,40.13
2023-02-14T18:11:42.243Z,39.13
2023-02-14T18:14:10.583Z,37.22
2023-02-14T18:16:39.438Z,38.05
2023-02-14T18:19:10.189Z,37.58
2023-02-14T18:21:40.114Z,38.67
2023-02-14T18:24:09.090Z,39.67
2023-02-14T18:26:37.856Z,32.10
2023-02-14T18:29:08.018Z,36.10
2023-02-14T18:31:41.263Z,38.13
2023-02-14T18:34:10.164Z,34.53
2023-02-14T18:36:39.743Z,41.20
2023-02-14T18:39:09.472Z,33.78
2023-02-14T18:41:37.791Z,37.03
2023-02-14T18:44:07.942Z,33.13
2023-02-14T18:46:39.940Z,36.45
2023-02-14T18:49:08.719Z,38.17
2023-02-14T18:51:39.635Z,40.50
2023-02-14T18:54:10.175Z,40.13
2023-02-14T18:56:39.200Z,38.42
2023-02-14T18:59:10.116Z,38.90
2023-02-14T19:01:40.974Z,36.92
2023-02-14T19:04:12.192Z,40.78
2023-02-14T19:06:43.375Z,42.95
2023-02-14T19:09:12.827Z,43.83
2023-02-14T19:11:42.240Z,37.60
2023-02-14T19:14:13.482Z,48.47
2023-02-14T19:16:44.131Z,43.80
2023-02-14T19:19:12.686Z,37.70
2023-02-14T19:21:41.242Z,39.97
2023-02-14T19:24:09.369Z,42.15
2023-02-14T19:26:40.642Z,38.33
2023-02-14T19:29:12.124Z,46.40
2023-02-14T19:31:42.124Z,48.70
2023-02-14T19:34:19.117Z,47.33
2023-02-14T19:36:48.053Z,36.92
2023-02-14T19:39:16.631Z,42.15
2023-02-14T19:41:45.014Z,44.28
2023-02-14T19:44:17.049Z,46.90
2023-02-14T19:46:47.706Z,54.58
2023-02-14T19:49:17.732Z,52.85
2023-02-14T19:51:46.725Z,49.28
2023-02-14T19:54:15.696Z,60.95
2023-02-14T19:56:45.128Z,50.10
2023-02-14T19:59:19.926Z,49.35
2023-02-14T20:01:51.647Z,50.70
2023-02-14T20:04:21.708Z,54.95
2023-02-14T20:06:51.341Z,53.75
2023-02-14T20:09:22.846Z,57.67
2023-02-14T20:11:52.382Z,57.33
2023-02-14T20:14:24.084Z,50.53
2023-02-14T20:16:53.784Z,55.08
2023-02-14T20:19:24.382Z,62.70
2023-02-14T20:21:52.605Z,63.70
2023-02-14T20:24:24.100Z,59.53
2023-02-14T20:26:54.388Z,62.92
2023-02-14T20:29:25.386Z,65.40
2023-02-14T20:31:55.556Z,59.75
2023-02-14T20:34:23.882Z,64.47
2023-02-14T20:36:55.336Z,55.13
2023-02-14T20:39:28.784Z,57.30
2023-02-14T20:41:57.030Z,54.63
2023-02-14T20:44:26.672Z,58.22
2023-02-14T20:46:55.987Z,53.75
2023-02-14T20:49:25.866Z,61.13
2023-02-14T20:51:54.854Z,61.42
2023-02-14T20:54:24.673Z,52.28
2023-02-14T20:56:52.935Z,62.25
2023-02-14T20:59:26.299Z,59.72
2023-02-14T21:01:57.031Z,61.20
2023-02-14T21:04:25.745Z,62.22
2023-02-14T21:06:53.843Z,65.20
2023-02-14T21:09:21.892Z,65.25
2023-02-14T21:11:50.336Z,63.13
2023-02-14T21:14:20.816Z,69.55
2023-02-14T21:16:49.192Z,73.35
2023-02-14T21:19:19.792Z,66.63
2023-02-14T21:21:48.287Z,64.20
2023-02-14T21:24:17.488Z,73.20
2023-02-14T21:26:45.818Z,71.93
2023-02-14T21:29:14.025Z,74.00
2023-02-14T21:31:42.602Z,67.90
2023-02-14T21:34:10.991Z,63.42
2023-02-14T21:36:40.942Z,71.55
2023-02-14T21:39:09.091Z,77.97
2023-02-14T21:41:37.892Z,70.95
2023-02-14T21:44:07.210Z,82.55
2023-02-14T21:46:37.285Z,81.30
2023-02-14T21:49:24.406Z,79.35
2023-02-14T21:51:54.355Z,76.70
2023-02-14T21:54:23.008Z,69.03
2023-02-14T21:56:51.798Z,85.00
2023-02-14T21:59:20.166Z,84.13
2023-02-14T22:01:48.662Z,84.07
2023-02-14T22:04:16.649Z,93.25
2023-02-14T22:06:44.591Z,82.57
2023-02-14T22:09:17.415Z,92.57
2023-02-14T22:11:47.484Z,81.90
2023-02-14T22:14:16.186Z,91.72
2023-02-14T22:16:44.331Z,85.55
2023-02-14T22:19:14.942Z,88.07
2023-02-14T22:21:44.347Z,84.70
2023-02-14T22:24:14.183Z,87.60
2023-02-14T22:26:42.314Z,102.88
2023-02-14T22:29:12.222Z,91.85
2023-02-14T22:31:44.119Z,95.60
2023-02-14T22:34:14.337Z,90.03
2023-02-14T22:36:42.932Z,95.07
2023-02-14T22:39:16.631Z,91.47
2023-02-14T22:41:45.286Z,99.53
2023-02-14T22:44:13.845Z,95.82
2023-02-14T22:46:42.876Z,95.80
2023-02-14T22:49:15.262Z,97.40
2023-02-14T22:51:44.048Z,94.40
2023-02-14T22:54:16.157Z,101.18
2023-02-14T22:56:45.674Z,96.53
2023-02-14T22:59:18.983Z,99.82
2023-02-14T23:01:48.773Z,108.22
2023-02-14T23:04:17.494Z,106.22
2023-02-14T23:06:45.984Z,103.40
2023-02-14T23:09:16.575Z,99.35
2023-02-14T23:11:47.145Z,94.13
2023-02-14T23:14:34.222Z,108.03
2023-02-14T23:17:22.161Z,109.65
2023-02-14T23:20:07.715Z,99.72
2023-02-14T23:22:37.861Z,109.05
2023-02-14T23:25:09.899Z,113.57
2023-02-14T23:27:40.294Z,109.57
2023-02-14T23:30:10.726Z,108.88
2023-02-14T23:32:39.081Z,105.47
2023-02-14T23:35:07.820Z,116.15
2023-02-14T23:37:36.481Z,109.68
2023-02-14T23:40:05.220Z,108.95
2023-02-14T23:42:34.661Z,114.10
2023-02-14T23:45:17.037Z,113.35
2023-02-14T23:47:46.582Z,119.43
2023-02-14T23:50:14.740Z,121.05
2023-02-14T23:52:44.809Z,119.80
2023-02-14T23:55:13.371Z,110.47
2023-02-14T23:57:42.981Z,113.57
